createdAt,value
2023-05-23T05:32:34.232Z,78.07
2023-05-23T05:35:02.167Z,79.03
2023-05-23T05:37:30.227Z,72.80
2023-05-23T05:39:57.359Z,70.88
2023-05-23T05:42:24.650Z,68.22
2023-05-23T05:44:51.895Z,70.25
2023-05-23T05:47:19.262Z,78.13
2023-05-23T05:49:46.843Z,65.72
2023-05-23T05:52:14.118Z,66.05
2023-05-23T05:54:41.338Z,63.72
2023-05-23T05:57:08.934Z,69.95
2023-05-23T05:59:36.251Z,73.30
2023-05-23T06:02:03.666Z,61.35
2023-05-23T06:04:31.701Z,63.08
2023-05-23T06:06:59.363Z,56.65
2023-05-23T06:09:36.652Z,66.10
2023-05-23T06:12:04.520Z,65.57
2023-05-23T06:14:32.623Z,53.58
2023-05-23T06:17:00.724Z,56.67
2023-05-23T06:19:28.531Z,64.00
2023-05-23T06:21:56.255Z,51.08
2023-05-23T06:24:24.168Z,57.42
2023-05-23T06:26:51.759Z,63.65
2023-05-23T06:29:19.863Z,49.33
2023-05-23T06:31:47.494Z,51.60
2023-05-23T06:34:15.365Z,52.58
2023-05-23T06:36:43.100Z,52.53
2023-05-23T06:39:10.750Z,49.53
2023-05-23T06:41:39.172Z,48.92
2023-05-23T06:44:06.933Z,46.38
2023-05-23T06:46:34.496Z,53.13
2023-05-23T06:49:13.723Z,45.78
2023-05-23T06:51:42.325Z,53.92
2023-05-23T06:54:10.413Z,44.78
2023-05-23T06:56:38.236Z,53.92
2023-05-23T06:59:05.717Z,40.75
2023-05-23T07:01:34.668Z,42.42
2023-05-23T07:04:02.469Z,41.33
2023-05-23T07:06:31.295Z,42.90
2023-05-23T07:08:58.938Z,39.60
2023-05-23T07:11:26.626Z,45.47
2023-05-23T07:13:54.324Z,38.83
2023-05-23T07:16:22.066Z,34.83
2023-05-23T07:18:50.132Z,38.05
2023-05-23T07:21:17.836Z,39.08
2023-05-23T07:23:45.570Z,29.42
2023-05-23T07:26:13.374Z,29.50
2023-05-23T07:28:41.076Z,34.75
2023-05-23T07:31:10.090Z,31.73
2023-05-23T07:33:37.870Z,32.92
2023-05-23T07:36:05.729Z,34.33
2023-05-23T07:38:33.380Z,34.53
2023-05-23T07:41:10.810Z,32.95
2023-05-23T07:43:40.866Z,30.10
2023-05-23T07:46:08.704Z,31.25
2023-05-23T07:48:36.821Z,29.45
2023-05-23T07:51:04.660Z,30.65
2023-05-23T07:53:32.261Z,33.63
2023-05-23T07:56:01.162Z,31.20
2023-05-23T07:58:28.803Z,27.75
2023-05-23T08:00:58.060Z,35.70
2023-05-23T08:03:25.800Z,32.28
2023-05-23T08:05:55.689Z,31.85
2023-05-23T08:08:25.932Z,35.83
2023-05-23T08:10:53.682Z,29.25
2023-05-23T08:13:21.545Z,27.25
2023-05-23T08:15:49.213Z,31.23
2023-05-23T08:18:18.236Z,31.20
2023-05-23T08:20:46.156Z,26.48
2023-05-23T08:23:14.211Z,34.45
2023-05-23T08:25:42.767Z,33.15
2023-05-23T08:28:10.246Z,32.05
2023-05-23T08:30:37.997Z,26.73
2023-05-23T08:33:07.247Z,26.95
2023-05-23T08:35:36.792Z,27.23
2023-05-23T08:38:07.914Z,29.75
2023-05-23T08:40:36.650Z,36.25
2023-05-23T08:43:08.085Z,33.30
2023-05-23T08:45:39.783Z,27.25
2023-05-23T08:48:13.618Z,22.42
2023-05-23T08:50:46.883Z,24.52
2023-05-23T08:53:20.710Z,25.73
2023-05-23T08:55:48.945Z,28.35
2023-05-23T08:58:17.422Z,27.15
2023-05-23T09:00:51.542Z,20.42
2023-05-23T09:03:19.512Z,22.33
2023-05-23T09:05:50.784Z,28.88
2023-05-23T09:08:24.772Z,19.88
2023-05-23T09:10:53.483Z,23.20
2023-05-23T09:13:21.047Z,23.60
2023-05-23T09:16:04.878Z,22.45
2023-05-23T09:18:43.232Z,22.58
2023-05-23T09:21:12.828Z,23.05
2023-05-23T09:23:41.373Z,19.35
2023-05-23T09:26:10.819Z,22.52
2023-05-23T09:28:40.267Z,27.90
2023-05-23T09:31:11.626Z,31.05
2023-05-23T09:33:50.466Z,24.60
2023-05-23T09:36:24.377Z,16.92
2023-05-23T09:38:54.527Z,19.00
2023-05-23T09:41:22.524Z,23.38
2023-05-23T09:43:55.380Z,21.50
2023-05-23T09:48:58.719Z,20.20
2023-05-23T09:51:28.489Z,19.30
2023-05-23T09:53:57.123Z,17.77
2023-05-23T09:56:28.824Z,21.90
2023-05-23T09:59:03.501Z,20.20
2023-05-23T10:01:38.208Z,17.88
2023-05-23T10:04:07.398Z,20.38
2023-05-23T10:07:02.152Z,17.33
2023-05-23T10:09:36.608Z,18.90
2023-05-23T10:12:22.343Z,19.58
2023-05-23T10:15:07.685Z,17.13
2023-05-23T10:17:56.987Z,17.58
2023-05-23T10:20:31.934Z,16.75
2023-05-23T10:23:01.617Z,19.05
2023-05-23T10:25:30.604Z,19.38
2023-05-23T10:28:02.448Z,18.15
2023-05-23T10:30:32.066Z,17.13
2023-05-23T10:33:05.433Z,19.75
2023-05-23T10:35:38.830Z,13.73
2023-05-23T10:38:24.542Z,14.75
2023-05-23T10:41:13.920Z,19.63
2023-05-23T10:43:55.667Z,16.52
2023-05-23T10:46:54.995Z,13.15
2023-05-23T10:49:56.027Z,11.60
2023-05-23T10:52:27.277Z,10.88
2023-05-23T10:54:56.366Z,19.88
2023-05-23T10:57:28.231Z,12.07
2023-05-23T10:59:57.025Z,11.98
2023-05-23T11:02:29.302Z,10.60
2023-05-23T11:05:22.818Z,16.13
2023-05-23T11:08:13.969Z,10.73
2023-05-23T11:10:54.074Z,10.23
2023-05-23T11:13:23.190Z,11.45
2023-05-23T11:15:50.814Z,11.93
2023-05-23T11:18:27.762Z,13.88
2023-05-23T11:20:55.635Z,9.25
2023-05-23T11:23:24.496Z,6.97
2023-05-23T11:25:54.090Z,8.95
2023-05-23T11:28:21.644Z,7.50
2023-05-23T11:30:49.774Z,5.57
2023-05-23T11:33:18.322Z,6.65
2023-05-23T11:35:47.406Z,5.68
2023-05-23T11:38:16.825Z,8.77
2023-05-23T11:40:45.758Z,4.82
2023-05-23T11:43:18.180Z,6.78
2023-05-23T11:45:48.383Z,4.60
2023-05-23T11:48:18.017Z,5.10
2023-05-23T11:50:45.938Z,9.57
2023-05-23T11:53:19.250Z,7.03
2023-05-23T11:55:53.443Z,12.65
2023-05-23T11:58:50.756Z,11.60
2023-05-23T12:01:20.163Z,6.30
2023-05-23T12:03:49.306Z,6.00
2023-05-23T12:06:20.555Z,5.60
2023-05-23T12:08:50.000Z,4.82
2023-05-23T12:11:18.668Z,4.78
2023-05-23T12:13:46.103Z,5.90
2023-05-23T12:16:16.505Z,6.50
2023-05-23T12:18:44.070Z,5.25
2023-05-23T12:21:11.901Z,5.07
2023-05-23T12:23:41.988Z,5.95
2023-05-23T12:26:12.198Z,5.35
2023-05-23T12:28:46.727Z,5.25
2023-05-23T12:31:18.029Z,5.93
2023-05-23T12:33:50.320Z,6.47
2023-05-23T12:36:26.205Z,4.38
2023-05-23T12:39:03.062Z,5.32
2023-05-23T12:41:33.687Z,3.25
2023-05-23T12:44:03.298Z,5.28
2023-05-23T12:46:30.578Z,6.05
2023-05-23T12:48:59.636Z,5.22
2023-05-23T12:51:26.848Z,5.93
2023-05-23T12:53:54.929Z,4.95
2023-05-23T12:56:25.990Z,5.55
2023-05-23T12:58:56.172Z,8.82
2023-05-23T13:01:24.498Z,5.32
2023-05-23T13:03:52.157Z,5.68
2023-05-23T13:06:27.325Z,4.75
2023-05-23T13:08:56.914Z,4.95
2023-05-23T13:11:24.523Z,5.85
2023-05-23T13:13:52.660Z,7.60
2023-05-23T13:16:19.879Z,4.72
2023-05-23T13:18:47.362Z,5.25
2023-05-23T13:21:15.020Z,6.55
2023-05-23T13:23:42.059Z,4.88
2023-05-23T13:26:09.328Z,6.50
2023-05-23T13:28:36.502Z,8.30
2023-05-23T13:31:03.906Z,9.30
2023-05-23T13:33:31.288Z,9.82
2023-05-23T13:35:58.644Z,5.88
2023-05-23T13:38:27.591Z,7.35
2023-05-23T13:40:55.071Z,3.95
2023-05-23T13:43:22.539Z,5.50
2023-05-23T13:45:49.724Z,4.72
2023-05-23T13:48:16.902Z,6.25
2023-05-23T13:50:48.068Z,5.97
2023-05-23T13:53:21.584Z,5.32
2023-05-23T13:55:49.188Z,10.38
2023-05-23T13:58:16.601Z,8.30
2023-05-23T14:00:47.491Z,3.85
2023-05-23T14:03:19.867Z,5.20
2023-05-23T14:05:47.354Z,4.30
2023-05-23T14:08:19.055Z,5.85
2023-05-23T14:10:50.174Z,3.78
2023-05-23T14:13:18.139Z,6.57
2023-05-23T14:15:48.467Z,3.83
2023-05-23T14:18:15.701Z,4.78
2023-05-23T14:20:42.854Z,7.93
2023-05-23T14:23:11.136Z,4.53
2023-05-23T14:25:39.350Z,3.70
2023-05-23T14:28:13.470Z,4.32
2023-05-23T14:30:41.197Z,7.28
2023-05-23T14:33:10.756Z,3.90
2023-05-23T14:35:39.959Z,4.88
2023-05-23T14:38:10.937Z,5.95
2023-05-23T14:40:38.179Z,5.97
2023-05-23T14:43:05.412Z,8.02
2023-05-23T14:45:32.656Z,9.82
2023-05-23T14:48:05.181Z,9.02
2023-05-23T14:50:32.618Z,12.15
2023-05-23T14:53:03.127Z,7.45
2023-05-23T14:55:30.369Z,7.43
2023-05-23T14:57:57.900Z,7.05
2023-05-23T15:00:25.687Z,10.48
2023-05-23T15:02:52.921Z,7.18
2023-05-23T15:05:22.409Z,6.85
2023-05-23T15:07:49.578Z,8.32
2023-05-23T15:10:18.841Z,6.35
2023-05-23T15:12:47.139Z,6.18
2023-05-23T15:15:16.496Z,7.60
2023-05-23T15:17:43.974Z,9.98
2023-05-23T15:20:23.070Z,6.53
2023-05-23T15:22:50.392Z,10.20
2023-05-23T15:25:20.413Z,6.78
2023-05-23T15:27:57.452Z,6.65
2023-05-23T15:30:24.673Z,6.35
2023-05-23T15:32:52.711Z,7.90
2023-05-23T15:35:21.564Z,6.80
2023-05-23T15:37:48.702Z,7.53
2023-05-23T15:40:15.970Z,14.50
2023-05-23T15:42:43.964Z,8.23
2023-05-23T15:45:12.678Z,9.02
2023-05-23T15:47:39.866Z,7.30
2023-05-23T15:50:07.924Z,11.10
2023-05-23T15:52:35.072Z,7.75
2023-05-23T15:55:05.597Z,12.15
2023-05-23T15:57:34.161Z,10.32
2023-05-23T16:00:01.734Z,13.15
